Time;durP1;ratioP1;P1;durP2;ratioP2;P2;SDS_P1;SDS_P2;PMS_P1;PMS_P2;Temp;Humidity;BMP_temperature;BMP_pressure;BME280_temperature;BME280_humidity;BME280_pressure;Samples;Min_cycle;Max_cycle;Signal;HPM_P1;HPM_P2
2022/10/05 00:01:31;;;;;;;39.00;35.75;;;;;;;8.93;100.00;102018.97;6157064;23;20028;-84
2022/10/05 00:04:10;;;;;;;41.63;37.85;;;;;;;8.94;100.00;102015.31;6157592;23;20033;-84
2022/10/05 00:06:41;;;;;;;39.88;36.35;;;;;;;8.87;100.00;102017.81;6157107;23;20025;-83
2022/10/05 00:09:23;;;;;;;40.67;37.25;;;;;;;9.03;100.00;102026.78;6157397;23;20388;-83
2022/10/05 00:11:51;;;;;;;41.13;37.92;;;;;;;8.77;100.00;102029.53;6157466;23;20045;-84
2022/10/05 00:14:32;;;;;;;42.15;38.75;;;;;;;8.95;100.00;102025.75;6156652;23;20033;-82
2022/10/05 00:17:16;;;;;;;40.30;36.65;;;;;;;8.70;100.00;102032.81;6156782;23;20457;-84
2022/10/05 00:19:45;;;;;;;40.03;36.97;;;;;;;8.85;100.00;102030.38;6156402;23;20045;-82
2022/10/05 00:22:18;;;;;;;40.92;37.78;;;;;;;8.76;100.00;102027.88;6156833;23;20032;-83
2022/10/05 00:24:50;;;;;;;39.15;36.28;;;;;;;8.53;100.00;102036.41;6156714;23;20049;-82
2022/10/05 00:27:23;;;;;;;43.17;39.60;;;;;;;8.80;100.00;102034.50;6156758;23;20084;-84
2022/10/05 00:30:02;;;;;;;40.75;37.20;;;;;;;8.57;100.00;102034.28;6156360;23;20777;-84
2022/10/05 00:32:31;;;;;;;39.63;36.50;;;;;;;8.60;100.00;102033.97;6156966;23;20025;-82
2022/10/05 00:35:09;;;;;;;39.63;36.35;;;;;;;8.60;100.00;102033.97;6157019;23;20521;-83
2022/10/05 00:37:40;;;;;;;41.05;38.05;;;;;;;8.31;100.00;102045.72;6156646;23;20115;-84
2022/10/05 00:40:21;;;;;;;39.85;36.75;;;;;;;8.02;100.00;102044.25;6156229;23;20506;-82
2022/10/05 00:43:06;;;;;;;36.83;34.13;;;;;;;7.80;100.00;102045.59;6157272;23;20335;-83
2022/10/05 00:45:45;;;;;;;37.92;34.67;;;;;;;8.26;100.00;102048.88;6157060;23;20022;-82
2022/10/05 00:48:25;;;;;;;41.75;38.40;;;;;;;8.47;100.00;102051.13;6157315;23;20027;-84
2022/10/05 00:51:12;;;;;;;37.95;34.83;;;;;;;8.48;100.00;102049.31;6156397;23;20044;-83
2022/10/05 00:53:52;;;;;;;38.53;35.65;;;;;;;8.55;100.00;102060.09;6156864;23;20383;-83
2022/10/05 00:56:34;;;;;;;38.53;35.80;;;;;;;8.61;100.00;102070.88;6156486;23;20018;-81
2022/10/05 00:59:17;;;;;;;37.80;35.30;;;;;;;8.41;100.00;102067.66;6156388;23;20028;-83
2022/10/05 01:02:00;;;;;;;37.15;34.33;;;;;;;8.11;100.00;102068.09;6156514;23;20431;-83
2022/10/05 01:04:31;;;;;;;;;;;;;;;7.83;100.00;102075.38;6157052;23;20025;-84
2022/10/05 01:07:09;;;;;;;35.42;32.75;;;;;;;7.62;100.00;102081.00;6156469;23;19920;-82
2022/10/05 01:09:46;;;;;;;37.65;34.65;;;;;;;7.93;100.00;102069.00;6156814;23;20390;-84
2022/10/05 01:12:23;;;;;;;40.00;37.20;;;;;;;7.81;100.00;102072.91;6156657;23;20036;-82
2022/10/05 01:15:05;;;;;;;39.13;36.25;;;;;;;7.79;100.00;102072.22;6156447;23;20447;-82
2022/10/05 01:17:46;;;;;;;38.75;35.95;;;;;;;7.70;100.00;102075.78;6156788;23;20105;-82
2022/10/05 01:20:34;;;;;;;40.47;37.88;;;;;;;7.67;100.00;102073.44;6156439;23;20030;-82
2022/10/05 01:23:37;;;;;;;35.42;32.67;;;;;;;7.70;100.00;102079.25;6156338;23;20049;-81
2022/10/05 01:26:30;;;;;;;35.38;32.90;;;;;;;7.07;100.00;102082.00;6043291;23;20039;-83
2022/10/05 01:29:16;;;;;;;41.22;38.33;;;;;;;7.47;100.00;102075.41;6156120;23;20029;-82
2022/10/05 01:31:59;;;;;;;40.00;37.05;;;;;;;7.79;100.00;102090.72;6156133;23;20029;-83
2022/10/05 01:34:38;;;;;;;38.67;35.72;;;;;;;7.70;100.00;102097.78;6156273;23;20014;-83
2022/10/05 01:37:25;;;;;;;38.03;35.28;;;;;;;7.34;100.00;102086.38;6155567;23;20022;-83
2022/10/05 01:40:13;;;;;;;35.67;33.08;;;;;;;7.37;100.00;102094.00;6155902;23;20052;-83
2022/10/05 01:42:54;;;;;;;37.30;34.33;;;;;;;7.68;100.00;102099.72;6155986;23;20028;-82
2022/10/05 01:45:37;;;;;;;36.00;33.45;;;;;;;7.55;100.00;102094.00;6156215;23;20084;-84
2022/10/05 01:48:09;;;;;;;35.03;32.40;;;;;;;7.28;100.00;102085.19;6156176;23;20022;-82
2022/10/05 01:50:47;;;;;;;36.33;33.60;;;;;;;7.41;100.00;102087.44;6155752;23;20474;-84
2022/10/05 01:53:35;;;;;;;35.38;32.83;;;;;;;7.65;100.00;102092.09;6155996;23;20780;-83
2022/10/05 01:56:11;;;;;;;32.65;30.40;;;;;;;6.95;100.00;102089.28;6155922;23;20021;-84
2022/10/05 01:58:48;;;;;;;31.33;28.40;;;;;;;6.80;100.00;102082.84;6155823;23;20018;-82
2022/10/05 02:01:24;;;;;;;34.60;31.88;;;;;;;7.17;100.00;102085.41;6141994;23;20052;-82
2022/10/05 02:03:56;;;;;;;34.72;32.15;;;;;;;7.31;100.00;102087.50;6154768;23;20022;-83
2022/10/05 02:06:31;;;;;;;31.60;29.17;;;;;;;6.71;100.00;102086.38;6154940;23;20390;-82
2022/10/05 02:09:05;;;;;;;34.67;32.05;;;;;;;7.16;100.00;102094.31;6154978;23;20025;-82
2022/10/05 02:11:37;;;;;;;33.92;31.27;;;;;;;6.57;100.00;102099.09;6154871;23;20505;-82
2022/10/05 02:14:11;;;;;;;31.52;29.20;;;;;;;6.51;100.00;102107.59;6155664;23;20099;-85
2022/10/05 02:16:42;;;;;;;34.08;31.60;;;;;;;6.99;100.00;102105.66;6155976;23;20430;-81
2022/10/05 02:19:19;;;;;;;45.28;37.90;;;;;;;7.10;100.00;102110.75;6155609;23;20017;-82
2022/10/05 02:21:50;;;;;;;63.47;45.22;;;;;;;7.27;100.00;102112.59;6154785;23;20029;-83
2022/10/05 02:24:22;;;;;;;42.53;38.17;;;;;;;7.08;100.00;102118.84;6154951;23;20096;-85
2022/10/05 02:26:53;;;;;;;38.30;34.85;;;;;;;6.89;100.00;102125.06;6155278;23;20025;-84
2022/10/05 02:29:28;;;;;;;38.38;34.83;;;;;;;6.98;100.00;102125.97;6156190;23;20025;-82
2022/10/05 02:32:00;;;;;;;35.13;32.33;;;;;;;6.72;100.00;102125.00;6155574;23;20525;-84
2022/10/05 02:34:30;;;;;;;34.15;31.55;;;;;;;6.84;100.00;102131.78;6156465;23;20084;-83
2022/10/05 02:37:14;;;;;;;37.80;34.75;;;;;;;7.07;100.00;102134.84;6155635;23;20084;-83
2022/10/05 02:40:03;;;;;;;37.08;34.53;;;;;;;7.06;100.00;102139.28;6155744;23;20021;-82
2022/10/05 02:42:36;;;;;;;36.95;33.80;;;;;;;6.87;100.00;102142.06;6155743;23;20087;-83
2022/10/05 02:45:12;;;;;;;36.15;33.38;;;;;;;7.04;100.00;102145.69;6155695;23;20033;-81
2022/10/05 02:47:51;;;;;;;36.35;33.55;;;;;;;6.89;100.00;102146.19;6156123;23;20029;-83
2022/10/05 02:50:32;;;;;;;37.53;34.75;;;;;;;6.78;100.00;102142.94;6155668;23;20450;-84
2022/10/05 02:53:23;;;;;;;34.05;31.38;;;;;;;6.58;100.00;102148.28;6155794;23;20088;-83
2022/10/05 02:56:04;;;;;;;34.88;32.13;;;;;;;6.68;100.00;102148.22;6155781;23;20443;-83
2022/10/05 02:58:41;;;;;;;34.10;31.52;;;;;;;6.61;100.00;102152.44;6155634;23;20087;-82
2022/10/05 03:01:21;;;;;;;32.85;30.23;;;;;;;6.51;100.00;102149.84;6154890;23;20034;-83
2022/10/05 03:03:57;;;;;;;34.83;32.20;;;;;;;6.61;100.00;102144.50;6156113;23;20627;-82
2022/10/05 03:06:30;;;;;;;31.90;29.52;;;;;;;6.53;100.00;102149.69;6155521;23;20316;-83
2022/10/05 03:09:02;;;;;;;29.90;27.40;;;;;;;5.74;100.00;102161.31;6155898;23;20091;-82
2022/10/05 03:11:37;;;;;;;34.92;32.55;;;;;;;6.38;100.00;102158.06;6155896;23;20040;-81
2022/10/05 03:14:17;;;;;;;33.92;31.50;;;;;;;6.40;100.00;102171.13;6155722;23;20025;-83
2022/10/05 03:16:58;;;;;;;32.10;29.65;;;;;;;5.76;100.00;102175.19;6155633;23;20527;-86
2022/10/05 03:20:00;;;;;;;36.97;34.38;;;;;;;6.39;100.00;102183.47;6155445;23;20017;-83
2022/10/05 03:22:43;;;;;;;36.10;33.70;;;;;;;6.39;100.00;102187.94;6156373;23;20022;-81
2022/10/05 03:25:28;;;;;;;36.90;34.13;;;;;;;6.56;100.00;102202.19;6157683;23;20088;-83
2022/10/05 03:28:05;;;;;;;35.05;32.65;;;;;;;6.59;100.00;102192.16;6157888;23;20092;-82
2022/10/05 03:30:38;;;;;;;36.35;33.58;;;;;;;6.44;100.00;102196.25;6157874;23;20025;-82
2022/10/05 03:33:15;;;;;;;36.80;34.30;;;;;;;6.35;100.00;102207.66;6157444;23;20022;-84
2022/10/05 03:35:57;;;;;;;38.42;35.10;;;;;;;6.30;100.00;102208.09;6157794;23;20033;-83
2022/10/05 03:38:32;;;;;;;31.80;29.70;;;;;;;6.14;100.00;102213.94;6157105;23;20025;-83
2022/10/05 03:41:12;;;;;;;34.10;31.45;;;;;;;6.22;100.00;102207.13;6157743;23;20383;-83
2022/10/05 03:44:12;;;;;;;34.85;32.28;;;;;;;6.37;100.00;102201.25;6157280;23;20084;-84
2022/10/05 03:47:05;;;;;;;33.95;31.45;;;;;;;6.08;100.00;102205.72;6157979;23;20049;-81
2022/10/05 03:49:40;;;;;;;;;;;;;;;6.12;100.00;102204.50;6158810;23;20021;-85
2022/10/05 03:52:15;;;;;;;33.45;30.95;;;;;;;6.01;100.00;102215.19;6157793;23;19931;-82
2022/10/05 03:54:48;;;;;;;33.47;31.00;;;;;;;5.89;100.00;102215.28;6157966;23;20029;-82
2022/10/05 03:57:25;;;;;;;48.13;44.08;;;;;;;5.73;100.00;102223.75;6156875;23;20047;-83
2022/10/05 03:59:59;;;;;;;53.75;49.47;;;;;;;5.96;100.00;102227.00;6156927;23;20402;-81
2022/10/05 04:02:29;;;;;;;54.42;50.33;;;;;;;5.94;100.00;102234.22;6155502;23;20041;-81
2022/10/05 04:05:02;;;;;;;35.92;33.33;;;;;;;5.80;100.00;102236.38;6156857;23;20027;-83
2022/10/05 04:07:43;;;;;;;34.17;31.52;;;;;;;5.77;100.00;102234.03;6156471;23;20096;-81
2022/10/05 04:10:17;;;;;;;35.58;32.60;;;;;;;5.46;100.00;102236.75;6155795;23;20061;-81
2022/10/05 04:12:49;;;;;;;38.22;34.92;;;;;;;5.68;100.00;102240.94;6157175;23;20097;-84
2022/10/05 04:15:23;;;;;;;40.95;37.45;;;;;;;5.89;100.00;102249.56;6156630;23;20088;-83
2022/10/05 04:17:55;;;;;;;39.17;35.72;;;;;;;5.93;100.00;102256.28;6156360;23;20497;-83
2022/10/05 04:20:28;;;;;;;36.75;33.72;;;;;;;5.95;100.00;102269.31;6156468;23;20022;-82
2022/10/05 04:23:05;;;;;;;32.50;29.70;;;;;;;5.76;100.00;102270.09;6156099;23;20378;-80
2022/10/05 04:25:39;;;;;;;33.38;30.60;;;;;;;5.78;100.00;102276.09;6156383;23;20451;-81
2022/10/05 04:28:14;;;;;;;32.97;30.40;;;;;;;5.81;100.00;102278.44;6156029;23;20458;-83
2022/10/05 04:30:44;;;;;;;32.75;30.15;;;;;;;5.58;100.00;102284.91;6155759;23;20095;-81
2022/10/05 04:33:14;;;;;;;33.10;30.52;;;;;;;5.53;100.00;102295.03;6156520;23;20022;-84
2022/10/05 04:35:58;;;;;;;34.35;31.60;;;;;;;5.71;100.00;102291.59;6156500;23;20026;-83
2022/10/05 04:38:47;;;;;;;33.25;30.70;;;;;;;5.86;100.00;102288.56;6156952;23;20056;-82
2022/10/05 04:41:43;;;;;;;33.15;30.60;;;;;;;5.76;100.00;102298.28;6156603;23;20024;-82
2022/10/05 04:44:26;;;;;;;33.25;30.65;;;;;;;5.89;100.00;102304.13;6156767;23;20130;-83
2022/10/05 04:47:10;;;;;;;34.25;31.45;;;;;;;5.88;100.00;102300.66;6157112;23;20096;-81
2022/10/05 04:49:57;;;;;;;34.40;31.80;;;;;;;5.92;100.00;102306.50;6155434;23;20104;-84
2022/10/05 04:52:31;;;;;;;34.75;32.10;;;;;;;5.89;100.00;102301.50;6155971;23;20383;-83
2022/10/05 04:55:12;;;;;;;32.90;30.50;;;;;;;5.53;100.00;102310.84;6156746;23;20030;-83
2022/10/05 04:57:46;;;;;;;33.60;31.20;;;;;;;5.74;100.00;102314.22;6157107;23;20025;-81
2022/10/05 05:00:23;;;;;;;32.95;30.35;;;;;;;6.11;100.00;102313.63;6156426;23;20048;-83
2022/10/05 05:03:12;;;;;;;33.53;31.13;;;;;;;6.17;100.00;102313.06;6157917;23;20375;-83
2022/10/05 05:05:49;;;;;;;33.70;31.30;;;;;;;6.33;100.00;102317.81;6156595;23;20025;-82
2022/10/05 05:08:33;;;;;;;35.58;32.85;;;;;;;6.48;100.00;102316.41;6152770;23;20124;-84
2022/10/05 05:11:22;;;;;;;35.90;33.28;;;;;;;6.86;100.00;102317.31;6156065;23;20025;-83
2022/10/05 05:14:18;;;;;;;34.35;31.50;;;;;;;6.82;100.00;102321.25;6155465;23;20093;-82
2022/10/05 05:16:57;;;;;;;37.03;34.00;;;;;;;7.15;100.00;102327.00;6140720;23;20390;-83
2022/10/05 05:19:38;;;;;;;38.53;35.35;;;;;;;7.39;100.00;102329.16;6154979;23;20017;-82
2022/10/05 05:22:17;;;;;;;39.58;36.17;;;;;;;7.60;100.00;102327.09;6154700;23;20025;-82
2022/10/05 05:24:59;;;;;;;41.70;38.28;;;;;;;7.90;100.00;102331.25;6153822;23;20033;-83
2022/10/05 05:27:41;;;;;;;46.20;41.67;;;;;;;7.98;100.00;102325.19;6153897;23;20017;-82
2022/10/05 05:30:18;;;;;;;46.72;42.63;;;;;;;7.93;100.00;102319.53;6154966;23;20014;-82
2022/10/05 05:32:57;;;;;;;49.45;44.25;;;;;;;8.31;100.00;102328.97;6155190;23;20470;-83
2022/10/05 05:35:44;;;;;;;47.58;42.60;;;;;;;8.40;100.00;102322.81;6154241;23;20024;-83
2022/10/05 05:38:23;;;;;;;43.58;39.67;;;;;;;8.69;100.00;102332.31;6155160;23;20032;-82
2022/10/05 05:41:06;;;;;;;45.08;40.92;;;;;;;8.85;100.00;102339.56;6155487;23;20024;-82
2022/10/05 05:43:51;;;;;;;50.92;45.53;;;;;;;9.52;100.00;102326.50;6154830;23;20020;-82
2022/10/05 05:46:25;;;;;;;43.35;39.78;;;;;;;8.82;100.00;102332.75;6155075;23;20026;-82
2022/10/05 05:48:53;;;;;;;44.20;40.75;;;;;;;8.60;100.00;102317.34;6153975;23;20346;-82
2022/10/05 05:51:27;;;;;;;50.28;45.53;;;;;;;9.43;100.00;102335.41;6154673;23;20029;-82
2022/10/05 05:53:59;;;;;;;45.78;41.67;;;;;;;9.49;100.00;102330.28;6154374;23;20025;-81
2022/10/05 05:56:30;;;;;;;;;;;;;;;9.59;100.00;102338.13;6154291;23;20025;-82
2022/10/05 05:59:05;;;;;;;47.10;43.42;;;;;;;9.91;100.00;102340.06;6153581;23;19935;-82
2022/10/05 06:01:37;;;;;;;46.30;42.03;;;;;;;10.24;100.00;102350.75;6153226;23;20421;-84
2022/10/05 06:04:13;;;;;;;45.63;42.10;;;;;;;10.39;100.00;102351.81;6153591;23;20323;-83
2022/10/05 06:06:44;;;;;;;38.63;36.03;;;;;;;10.73;100.00;102348.97;6154402;23;20036;-82
2022/10/05 06:09:19;;;;;;;37.45;34.85;;;;;;;10.76;100.00;102366.41;6154492;23;20332;-83
2022/10/05 06:11:52;;;;;;;37.60;35.13;;;;;;;10.82;100.00;102357.78;6153944;23;20026;-82
2022/10/05 06:14:27;;;;;;;38.45;35.80;;;;;;;11.07;100.00;102360.41;6154656;23;20044;-82
2022/10/05 06:16:59;;;;;;;39.97;37.25;;;;;;;10.25;100.00;102358.53;6154699;23;20399;-82
2022/10/05 06:19:29;;;;;;;37.75;35.35;;;;;;;11.30;100.00;102355.19;6153967;23;20087;-84
2022/10/05 06:22:02;;;;;;;35.85;33.50;;;;;;;11.43;100.00;102352.81;6154114;23;20033;-82
2022/10/05 06:24:35;;;;;;;37.35;35.13;;;;;;;11.76;100.00;102361.50;6154340;23;20032;-84
2022/10/05 06:27:34;;;;;;;35.85;33.55;;;;;;;11.82;100.00;102367.97;6154246;23;20047;-82
2022/10/05 06:30:07;;;;;;;36.15;33.97;;;;;;;12.07;100.00;102382.00;6154454;23;20017;-81
2022/10/05 06:32:47;;;;;;;35.80;33.70;;;;;;;12.49;100.00;102380.75;6155328;23;20032;-81
2022/10/05 06:35:23;;;;;;;36.20;34.05;;;;;;;12.62;100.00;102381.00;6155068;23;20037;-82
2022/10/05 06:38:15;;;;;;;35.63;33.42;;;;;;;12.61;100.00;102387.31;6154742;23;20092;-82
2022/10/05 06:41:00;;;;;;;37.40;34.90;;;;;;;13.21;100.00;102391.75;6155117;23;20021;-81
2022/10/05 06:43:43;;;;;;;35.50;33.33;;;;;;;13.26;100.00;102388.59;6154411;23;20021;-83
2022/10/05 06:46:15;;;;;;;;;;;;;;;12.80;100.00;102389.50;6155231;23;20021;-82
2022/10/05 06:48:55;;;;;;;35.38;33.28;;;;;;;13.17;100.00;102398.47;6154267;23;20369;-82
2022/10/05 06:51:31;;;;;;;37.40;35.20;;;;;;;13.93;100.00;102409.00;6153443;23;20025;-82
2022/10/05 06:54:08;;;;;;;34.38;32.35;;;;;;;13.31;100.00;102406.72;6154626;23;20026;-83
2022/10/05 06:56:44;;;;;;;34.25;32.35;;;;;;;13.77;100.00;102407.38;6154403;23;20672;-83
2022/10/05 06:59:20;;;;;;;33.38;31.17;;;;;;;13.61;100.00;102407.53;6156808;23;20091;-82
2022/10/05 07:01:56;;;;;;;33.17;31.08;;;;;;;13.82;100.00;102414.81;6155758;23;20021;-82
2022/10/05 07:04:45;;;;;;;33.47;31.20;;;;;;;14.19;100.00;102395.09;6157013;23;20021;-82
2022/10/05 07:07:21;;;;;;;33.75;31.50;;;;;;;14.39;100.00;102404.16;6156637;23;20029;-83
2022/10/05 07:09:58;;;;;;;33.75;31.85;;;;;;;14.74;100.00;102393.63;6156219;23;20021;-83
2022/10/05 07:12:40;;;;;;;35.50;33.22;;;;;;;14.82;100.00;102390.78;6155957;23;20022;-82
2022/10/05 07:15:25;;;;;;;34.42;32.10;;;;;;;14.87;100.00;102390.22;6156678;23;20175;-81
2022/10/05 07:18:05;;;;;;;35.55;33.25;;;;;;;15.03;100.00;102387.25;6157087;23;20028;-82
2022/10/05 07:20:42;;;;;;;34.30;32.40;;;;;;;15.31;100.00;102381.03;6156291;23;20033;-83
2022/10/05 07:23:29;;;;;;;33.85;31.80;;;;;;;15.63;100.00;102390.28;6156018;23;20329;-82
2022/10/05 07:26:05;;;;;;;35.03;33.00;;;;;;;15.67;100.00;102385.34;6155808;23;20029;-80
2022/10/05 07:28:44;;;;;;;35.92;33.83;;;;;;;15.10;100.00;102393.50;6155652;23;20017;-81
2022/10/05 07:31:18;;;;;;;34.55;32.47;;;;;;;15.72;100.00;102399.03;6155597;23;20048;-81
2022/10/05 07:33:57;;;;;;;35.95;34.03;;;;;;;15.49;100.00;102393.91;6155310;23;20069;-83
2022/10/05 07:39:28;;;;;;;35.45;33.30;;;;;;;16.85;100.00;102391.22;6156046;23;20083;-84
2022/10/05 07:42:05;;;;;;;35.75;33.70;;;;;;;17.00;100.00;102391.84;6155934;23;20028;-83
2022/10/05 07:44:38;;;;;;;36.83;34.53;;;;;;;16.62;100.00;102397.00;6156196;23;20022;-81
2022/10/05 07:47:09;;;;;;;;;;;;;;;16.56;100.00;102395.97;6156732;23;20438;-83
2022/10/05 07:49:47;;;;;;;37.17;35.03;;;;;;;17.69;100.00;102406.56;6155826;23;19983;-82
2022/10/05 07:52:22;;;;;;;35.40;33.30;;;;;;;17.08;100.00;102401.56;6155835;23;20027;-83
2022/10/05 07:54:59;;;;;;;35.08;33.13;;;;;;;17.90;100.00;102405.47;6156129;23;20022;-81
2022/10/05 07:57:37;;;;;;;38.25;35.70;;;;;;;18.13;100.00;102404.13;6155926;23;20029;-81
2022/10/05 08:00:06;;;;;;;34.53;32.30;;;;;;;18.72;100.00;102386.75;6156199;23;20430;-82
2022/10/05 08:02:40;;;;;;;32.65;30.75;;;;;;;18.73;100.00;102381.19;6155466;23;20033;-84
2022/10/05 08:05:15;;;;;;;33.22;31.13;;;;;;;17.79;100.00;102398.94;6156186;23;20099;-85
2022/10/05 08:07:42;;;;;;;35.03;32.97;;;;;;;17.98;100.00;102399.88;6155257;23;20026;-82
2022/10/05 08:10:26;;;;;;;34.90;32.80;;;;;;;19.78;100.00;102401.03;6154790;23;20268;-82
2022/10/05 08:13:03;;;;;;;35.33;33.22;;;;;;;16.49;100.00;102403.19;6155804;23;20029;-81
2022/10/05 08:15:34;;;;;;;34.10;31.98;;;;;;;19.77;100.00;102405.63;6156017;23;20017;-84
2022/10/05 08:18:05;;;;;;;35.88;33.75;;;;;;;17.53;100.00;102402.50;6155809;23;20037;-83
2022/10/05 08:20:42;;;;;;;34.63;32.58;;;;;;;18.45;100.00;102399.56;6155452;23;20018;-82
2022/10/05 08:23:20;;;;;;;34.13;32.13;;;;;;;18.77;100.00;102395.84;6154926;23;20040;-82
2022/10/05 08:25:59;;;;;;;33.67;31.67;;;;;;;19.20;100.00;102408.50;6155397;23;20028;-83
2022/10/05 08:28:30;;;;;;;34.00;32.20;;;;;;;20.23;100.00;102406.03;6156170;23;20024;-85
2022/10/05 08:31:09;;;;;;;35.45;33.30;;;;;;;16.91;100.00;102412.72;6156383;23;20029;-82
2022/10/05 08:33:46;;;;;;;35.42;33.22;;;;;;;19.35;100.00;102416.22;6156341;23;20084;-83
2022/10/05 08:36:19;;;;;;;37.63;35.30;;;;;;;19.53;100.00;102406.50;6155701;23;20033;-81
2022/10/05 08:38:46;;;;;;;35.70;33.65;;;;;;;20.31;99.11;102405.72;6156104;23;20032;-81
2022/10/05 08:41:52;;;;;;;34.38;32.30;;;;;;;21.00;100.00;102415.03;6155868;23;20021;-80
2022/10/05 08:45:06;;;;;;;34.85;32.85;;;;;;;21.01;92.61;102407.75;6087561;23;20093;-83
2022/10/05 08:48:13;;;;;;;34.85;32.90;;;;;;;20.74;90.07;102408.19;6115785;23;20029;-83
2022/10/05 08:51:22;;;;;;;33.88;31.80;;;;;;;21.65;79.53;102415.91;6148495;23;20376;-82
2022/10/05 08:54:12;;;;;;;34.92;32.83;;;;;;;20.45;71.01;102412.56;6133021;23;20312;-83
2022/10/05 08:56:43;;;;;;;34.17;31.98;;;;;;;21.14;72.69;102407.50;6156065;23;20100;-83
2022/10/05 08:59:48;;;;;;;35.47;33.17;;;;;;;21.55;63.92;102421.94;6155561;23;20021;-83
2022/10/05 09:02:26;;;;;;;34.13;31.92;;;;;;;20.91;65.93;102415.59;6139881;23;20021;-82
2022/10/05 09:05:10;;;;;;;36.05;34.03;;;;;;;21.49;67.54;102422.88;6155624;23;20037;-82
2022/10/05 09:08:03;;;;;;;35.13;33.00;;;;;;;22.38;60.70;102415.16;6155497;23;20303;-82
2022/10/05 09:10:59;;;;;;;34.95;33.05;;;;;;;22.03;71.13;102422.59;6155653;23;20033;-82
2022/10/05 09:13:41;;;;;;;32.97;31.17;;;;;;;22.80;61.53;102424.78;6155472;23;20021;-83
2022/10/05 09:16:46;;;;;;;38.20;36.10;;;;;;;22.80;61.55;102422.91;6155513;23;20025;-84
2022/10/05 09:19:48;;;;;;;37.28;35.10;;;;;;;23.70;55.97;102420.97;6155675;23;20021;-81
2022/10/05 09:22:21;;;;;;;32.65;30.75;;;;;;;22.73;62.81;102419.56;6155599;23;20084;-82
2022/10/05 09:24:57;;;;;;;32.85;30.55;;;;;;;22.04;59.10;102416.13;6155230;23;20021;-82
2022/10/05 09:27:36;;;;;;;33.22;31.42;;;;;;;22.35;60.71;102426.47;6155625;23;20021;-84
2022/10/05 09:30:46;;;;;;;33.15;31.25;;;;;;;23.53;56.33;102417.44;6155702;23;20017;-82
2022/10/05 09:33:52;;;;;;;35.25;33.25;;;;;;;23.46;52.05;102420.34;6065721;23;20031;-81
2022/10/05 09:36:38;;;;;;;34.25;32.55;;;;;;;21.89;54.49;102416.66;6065560;23;20325;-83
2022/10/05 09:39:35;;;;;;;34.90;33.00;;;;;;;20.97;59.68;102418.19;6147212;23;20020;-81
2022/10/05 09:42:35;;;;;;;36.10;34.05;;;;;;;21.43;62.18;102418.44;6155244;23;20021;-81
2022/10/05 09:45:42;;;;;;;35.05;33.10;;;;;;;23.13;53.47;102412.31;6150654;23;20032;-82
2022/10/05 09:48:56;;;;;;;36.72;34.63;;;;;;;23.99;49.04;102412.59;6155630;23;20095;-82
2022/10/05 09:51:54;;;;;;;37.17;35.08;;;;;;;23.85;49.36;102414.09;6147242;23;20096;-83
2022/10/05 09:55:08;;;;;;;39.45;37.25;;;;;;;23.21;50.89;102407.28;6155511;23;20033;-82
2022/10/05 09:57:46;;;;;;;;;;;;;;;22.25;49.92;102411.97;6066302;23;20448;-82
2022/10/05 10:00:28;;;;;;;36.35;34.40;;;;;;;23.77;49.89;102407.19;6151181;23;19987;-82
2022/10/05 10:03:20;;;;;;;36.97;35.08;;;;;;;23.34;48.92;102405.28;6154830;23;20044;-81
2022/10/05 10:06:00;;;;;;;;;;;;;;;22.79;51.31;102402.31;6155382;23;20096;-83
2022/10/05 10:08:39;;;;;;;39.05;37.05;;;;;;;21.10;65.23;102408.22;6155017;23;19917;-81
2022/10/05 10:11:17;;;;;;;39.80;37.70;;;;;;;21.87;62.26;102399.84;6154872;23;20021;-83
2022/10/05 10:14:16;;;;;;;38.38;36.17;;;;;;;23.24;47.96;102398.66;6154460;23;20021;-81
2022/10/05 10:17:19;;;;;;;35.88;33.83;;;;;;;22.88;52.62;102386.47;6153994;23;20021;-81
2022/10/05 10:20:01;;;;;;;;;;;;;;;23.66;47.08;102384.53;6135547;23;20026;-81
2022/10/05 10:23:06;;;;;;;35.33;33.53;;;;;;;24.16;45.15;102383.47;6154573;23;19916;-82
2022/10/05 10:25:52;;;;;;;36.88;34.80;;;;;;;24.91;43.60;102387.06;6154359;23;20029;-82
2022/10/05 10:28:36;;;;;;;35.33;33.35;;;;;;;24.96;43.50;102382.72;6154498;23;20022;-81
2022/10/05 10:31:26;;;;;;;37.17;35.20;;;;;;;25.43;41.10;102382.75;6151323;23;20021;-81
2022/10/05 10:34:18;;;;;;;36.22;34.33;;;;;;;24.33;40.40;102383.34;6154012;23;20458;-81
2022/10/05 10:36:59;;;;;;;;;;;;;;;24.12;41.08;102371.47;6154691;23;20378;-83
2022/10/05 10:39:44;;;;;;;34.00;31.85;;;;;;;24.86;41.72;102373.44;6154374;23;19943;-81
2022/10/05 10:42:28;;;;;;;37.38;34.45;;;;;;;24.55;40.55;102368.88;6154026;23;20105;-84
2022/10/05 10:45:19;;;;;;;34.33;32.40;;;;;;;24.93;41.77;102367.78;6154352;23;20025;-80
2022/10/05 10:47:53;;;;;;;36.25;34.10;;;;;;;25.87;41.06;102355.16;6154716;23;20100;-81
2022/10/05 10:50:55;;;;;;;34.90;32.90;;;;;;;25.15;40.40;102345.91;6153015;23;20406;-80
2022/10/05 10:54:02;;;;;;;39.08;36.88;;;;;;;25.88;36.82;102345.91;6151411;23;20021;-82
2022/10/05 10:56:54;;;;;;;34.90;32.75;;;;;;;25.68;37.84;102340.38;6153810;23;20022;-80
2022/10/05 10:59:57;;;;;;;35.00;33.00;;;;;;;23.97;43.86;102344.19;6154257;23;20112;-82
2022/10/05 11:02:38;;;;;;;34.15;32.15;;;;;;;24.70;39.56;102341.84;6154309;23;20273;-82
2022/10/05 11:05:42;;;;;;;35.53;33.53;;;;;;;25.58;35.99;102333.81;6129391;23;20025;-80
2022/10/05 11:08:43;;;;;;;34.50;32.53;;;;;;;25.34;36.60;102329.94;6139296;23;20017;-82
2022/10/05 11:11:38;;;;;;;36.65;34.75;;;;;;;26.17;38.59;102327.16;6155759;23;20053;-80
2022/10/05 11:14:41;;;;;;;37.97;35.97;;;;;;;25.48;38.07;102328.38;6154217;23;20023;-80
2022/10/05 11:17:37;;;;;;;38.97;36.78;;;;;;;26.46;35.72;102308.31;6151999;23;20022;-80
2022/10/05 11:20:25;;;;;;;38.72;36.75;;;;;;;26.67;34.92;102308.31;6155539;23;20037;-81
2022/10/05 11:22:59;;;;;;;37.70;35.65;;;;;;;26.17;37.43;102313.53;6154415;23;20028;-82
2022/10/05 11:26:00;;;;;;;36.85;34.75;;;;;;;26.79;36.84;102308.81;6154316;23;20026;-81
2022/10/05 11:28:42;;;;;;;36.42;34.15;;;;;;;25.85;33.78;102305.63;6154940;23;20028;-81
2022/10/05 11:31:47;;;;;;;35.85;33.83;;;;;;;26.02;34.32;102306.19;6154280;23;20029;-81
2022/10/05 11:34:49;;;;;;;34.08;31.95;;;;;;;25.51;36.60;102303.34;6155861;23;20025;-82
2022/10/05 11:37:45;;;;;;;41.37;38.50;;;;;;;21.65;40.28;102314.00;6150613;23;20037;-81
2022/10/05 11:40:33;;;;;;;93.15;76.57;;;;;;;24.51;39.12;102297.13;6155478;23;20319;-82
2022/10/05 11:43:27;;;;;;;326.17;214.90;;;;;;;22.38;45.45;102296.06;6155557;23;20024;-81
2022/10/05 11:46:08;;;;;;;49.25;45.15;;;;;;;26.43;38.57;102295.25;6156572;23;20024;-81
2022/10/05 11:48:54;;;;;;;42.55;39.15;;;;;;;27.35;33.83;102303.19;6156929;23;20025;-83
2022/10/05 11:51:48;;;;;;;37.47;35.40;;;;;;;25.85;34.90;102308.34;6156039;23;20041;-82
2022/10/05 11:54:36;;;;;;;37.35;35.20;;;;;;;25.73;35.51;102313.19;6152173;23;20049;-80
2022/10/05 11:57:07;;;;;;;36.05;33.80;;;;;;;26.67;34.23;102311.84;6158739;23;20095;-81
2022/10/05 11:59:40;;;;;;;36.30;34.30;;;;;;;24.95;37.36;102316.69;6157104;23;20036;-80
2022/10/05 12:02:38;;;;;;;37.58;35.47;;;;;;;27.18;34.18;102314.44;6155495;23;20021;-82
2022/10/05 12:05:17;;;;;;;33.85;31.95;;;;;;;26.16;36.88;102330.94;6155608;23;20025;-81
2022/10/05 12:07:56;;;;;;;34.85;32.85;;;;;;;25.60;36.50;102322.69;6155978;23;20037;-81
2022/10/05 12:10:32;;;;;;;38.95;36.50;;;;;;;26.16;34.78;102324.69;6154378;23;20013;-82
2022/10/05 12:13:12;;;;;;;35.25;33.00;;;;;;;26.92;35.96;102316.41;6156019;23;20045;-82
2022/10/05 12:15:48;;;;;;;33.97;31.98;;;;;;;25.84;37.44;102312.16;6155713;23;20033;-82
2022/10/05 12:18:22;;;;;;;36.80;34.67;;;;;;;26.52;38.94;102311.88;6154958;23;20084;-82